Terminal Aerodrome Forecast
Issued by NWS Cleveland, OH

Home | Current Version | Previous Version | Text Only | Print | Product List | Glossary Off
Versions: 1 2 3 4 5 6 7 8 9 10 11 12 13 14 15 16

000
FTUS41 KCLE 180500
TAFMFD
TAF
KMFD 180539Z 1806/1906 25015G25KT P6SM SCT035
     FM181500 24018G30KT P6SM BKN025
     FM182100 22015G25KT P6SM BKN035
     FM190200 22013KT P6SM BKN035=

USA.gov is the U.S. government's official web portal to all federal, state and local government web resources and services.